sensor_id;sensor_type;location;lat;lon;timestamp;temperature;humidity
4366;DHT22;2196;47.422;9.656;2022-12-10T00:01:04;2.50;99.90
4366;DHT22;2196;47.422;9.656;2022-12-10T00:03:32;2.50;99.90
4366;DHT22;2196;47.422;9.656;2022-12-10T00:06:00;2.50;99.90
4366;DHT22;2196;47.422;9.656;2022-12-10T00:08:28;2.50;99.90
4366;DHT22;2196;47.422;9.656;2022-12-10T00:10:55;2.50;99.90
4366;DHT22;2196;47.422;9.656;2022-12-10T00:13:22;2.50;99.90
4366;DHT22;2196;47.422;9.656;2022-12-10T00:15:49;2.50;99.90
4366;DHT22;2196;47.422;9.656;2022-12-10T00:18:16;2.50;99.90
4366;DHT22;2196;47.422;9.656;2022-12-10T00:20:45;2.50;99.90
4366;DHT22;2196;47.422;9.656;2022-12-10T00:23:12;2.50;99.90
4366;DHT22;2196;47.422;9.656;2022-12-10T00:25:39;2.50;99.90
4366;DHT22;2196;47.422;9.656;2022-12-10T00:28:06;2.40;99.90
4366;DHT22;2196;47.422;9.656;2022-12-10T00:30:33;2.40;99.90
4366;DHT22;2196;47.422;9.656;2022-12-10T00:33:00;2.50;99.90
4366;DHT22;2196;47.422;9.656;2022-12-10T00:35:27;2.40;99.90
4366;DHT22;2196;47.422;9.656;2022-12-10T00:37:56;2.40;99.90
4366;DHT22;2196;47.422;9.656;2022-12-10T00:40:23;2.40;99.90
4366;DHT22;2196;47.422;9.656;2022-12-10T00:42:50;2.40;99.90
4366;DHT22;2196;47.422;9.656;2022-12-10T00:45:18;2.40;99.90
4366;DHT22;2196;47.422;9.656;2022-12-10T00:47:45;2.30;99.90
4366;DHT22;2196;47.422;9.656;2022-12-10T00:50:12;2.30;99.90
4366;DHT22;2196;47.422;9.656;2022-12-10T00:52:39;2.30;99.90
4366;DHT22;2196;47.422;9.656;2022-12-10T00:55:08;2.40;99.90
4366;DHT22;2196;47.422;9.656;2022-12-10T00:57:35;2.30;99.90
4366;DHT22;2196;47.422;9.656;2022-12-10T01:00:03;2.30;99.90
4366;DHT22;2196;47.422;9.656;2022-12-10T01:02:30;2.30;99.90
4366;DHT22;2196;47.422;9.656;2022-12-10T01:04:58;2.40;99.90
4366;DHT22;2196;47.422;9.656;2022-12-10T01:07:25;2.40;99.90
4366;DHT22;2196;47.422;9.656;2022-12-10T01:09:52;2.40;99.90
4366;DHT22;2196;47.422;9.656;2022-12-10T01:12:20;2.40;99.90
4366;DHT22;2196;47.422;9.656;2022-12-10T01:14:47;2.40;99.90
4366;DHT22;2196;47.422;9.656;2022-12-10T01:17:14;2.40;99.90
4366;DHT22;2196;47.422;9.656;2022-12-10T01:19:41;2.40;99.90
4366;DHT22;2196;47.422;9.656;2022-12-10T01:22:09;2.40;99.90
4366;DHT22;2196;47.422;9.656;2022-12-10T01:24:36;2.40;99.90
4366;DHT22;2196;47.422;9.656;2022-12-10T01:27:06;2.40;99.90
4366;DHT22;2196;47.422;9.656;2022-12-10T01:29:34;2.40;99.90
4366;DHT22;2196;47.422;9.656;2022-12-10T01:32:01;2.40;99.90
4366;DHT22;2196;47.422;9.656;2022-12-10T01:34:29;2.30;99.90
4366;DHT22;2196;47.422;9.656;2022-12-10T01:36:56;2.30;99.90
4366;DHT22;2196;47.422;9.656;2022-12-10T01:39:23;2.30;99.90
4366;DHT22;2196;47.422;9.656;2022-12-10T01:41:52;2.40;99.90
4366;DHT22;2196;47.422;9.656;2022-12-10T01:47:36;2.30;99.90
4366;DHT22;2196;47.422;9.656;2022-12-10T01:50:05;2.30;99.90
4366;DHT22;2196;47.422;9.656;2022-12-10T01:52:32;2.30;99.90
4366;DHT22;2196;47.422;9.656;2022-12-10T01:54:59;2.30;99.90
4366;DHT22;2196;47.422;9.656;2022-12-10T01:57:27;2.30;99.90
4366;DHT22;2196;47.422;9.656;2022-12-10T01:59:57;2.30;99.90
4366;DHT22;2196;47.422;9.656;2022-12-10T02:02:36;2.20;99.90
4366;DHT22;2196;47.422;9.656;2022-12-10T02:05:17;2.30;99.90
4366;DHT22;2196;47.422;9.656;2022-12-10T02:07:57;2.30;99.90
4366;DHT22;2196;47.422;9.656;2022-12-10T02:10:34;2.30;99.90
4366;DHT22;2196;47.422;9.656;2022-12-10T02:13:08;2.30;99.90
4366;DHT22;2196;47.422;9.656;2022-12-10T02:15:41;2.30;99.90
4366;DHT22;2196;47.422;9.656;2022-12-10T02:18:14;2.30;99.90
4366;DHT22;2196;47.422;9.656;2022-12-10T02:20:47;2.30;99.90
4366;DHT22;2196;47.422;9.656;2022-12-10T02:23:20;2.30;99.90
4366;DHT22;2196;47.422;9.656;2022-12-10T02:25:53;2.30;99.90
4366;DHT22;2196;47.422;9.656;2022-12-10T02:28:25;2.30;99.90
4366;DHT22;2196;47.422;9.656;2022-12-10T02:31:00;2.30;99.90
4366;DHT22;2196;47.422;9.656;2022-12-10T02:33:29;2.30;99.90
4366;DHT22;2196;47.422;9.656;2022-12-10T02:35:57;2.30;99.90
4366;DHT22;2196;47.422;9.656;2022-12-10T02:38:27;2.30;99.90
4366;DHT22;2196;47.422;9.656;2022-12-10T02:40:59;2.30;99.90
4366;DHT22;2196;47.422;9.656;2022-12-10T02:43:27;2.30;99.90
4366;DHT22;2196;47.422;9.656;2022-12-10T02:45:56;2.30;99.90
4366;DHT22;2196;47.422;9.656;2022-12-10T02:48:25;2.20;99.90
4366;DHT22;2196;47.422;9.656;2022-12-10T02:50:53;2.30;99.90
4366;DHT22;2196;47.422;9.656;2022-12-10T02:53:20;2.30;99.90
4366;DHT22;2196;47.422;9.656;2022-12-10T02:56:00;2.30;99.90
4366;DHT22;2196;47.422;9.656;2022-12-10T02:58:38;2.30;99.90
4366;DHT22;2196;47.422;9.656;2022-12-10T03:01:16;2.30;99.90
4366;DHT22;2196;47.422;9.656;2022-12-10T03:03:50;2.30;99.90
4366;DHT22;2196;47.422;9.656;2022-12-10T03:06:22;2.30;99.90
4366;DHT22;2196;47.422;9.656;2022-12-10T03:08:59;2.20;99.90
4366;DHT22;2196;47.422;9.656;2022-12-10T03:11:28;2.30;99.90
4366;DHT22;2196;47.422;9.656;2022-12-10T03:13:59;2.20;99.90
4366;DHT22;2196;47.422;9.656;2022-12-10T03:16:31;2.30;99.90
4366;DHT22;2196;47.422;9.656;2022-12-10T03:19:04;2.30;99.90
4366;DHT22;2196;47.422;9.656;2022-12-10T03:21:33;2.30;99.90
4366;DHT22;2196;47.422;9.656;2022-12-10T03:24:02;2.30;99.90
4366;DHT22;2196;47.422;9.656;2022-12-10T03:26:30;2.30;99.90
4366;DHT22;2196;47.422;9.656;2022-12-10T03:29:06;2.30;99.90
4366;DHT22;2196;47.422;9.656;2022-12-10T03:31:35;2.40;99.90
4366;DHT22;2196;47.422;9.656;2022-12-10T03:34:06;2.40;99.90
4366;DHT22;2196;47.422;9.656;2022-12-10T03:36:34;2.40;99.90
4366;DHT22;2196;47.422;9.656;2022-12-10T03:39:02;2.40;99.90
4366;DHT22;2196;47.422;9.656;2022-12-10T03:41:29;2.30;99.90
4366;DHT22;2196;47.422;9.656;2022-12-10T03:43:59;2.40;99.90
4366;DHT22;2196;47.422;9.656;2022-12-10T03:46:28;2.40;99.90
4366;DHT22;2196;47.422;9.656;2022-12-10T03:48:56;2.40;99.90
4366;DHT22;2196;47.422;9.656;2022-12-10T03:51:25;2.40;99.90
4366;DHT22;2196;47.422;9.656;2022-12-10T03:53:52;2.40;99.90
4366;DHT22;2196;47.422;9.656;2022-12-10T03:56:20;2.40;99.90
4366;DHT22;2196;47.422;9.656;2022-12-10T03:58:47;2.40;99.90
4366;DHT22;2196;47.422;9.656;2022-12-10T04:01:15;2.40;99.90
4366;DHT22;2196;47.422;9.656;2022-12-10T04:03:42;2.50;99.90
4366;DHT22;2196;47.422;9.656;2022-12-10T04:06:12;2.50;99.90
4366;DHT22;2196;47.422;9.656;2022-12-10T04:08:41;2.50;99.90
4366;DHT22;2196;47.422;9.656;2022-12-10T04:11:10;2.40;99.90
4366;DHT22;2196;47.422;9.656;2022-12-10T04:13:38;2.40;99.90
4366;DHT22;2196;47.422;9.656;2022-12-10T04:16:24;2.40;99.90
4366;DHT22;2196;47.422;9.656;2022-12-10T04:18:54;2.40;99.90
4366;DHT22;2196;47.422;9.656;2022-12-10T04:21:22;2.40;99.90
4366;DHT22;2196;47.422;9.656;2022-12-10T04:24:09;2.40;99.90
4366;DHT22;2196;47.422;9.656;2022-12-10T04:26:54;2.30;99.90
4366;DHT22;2196;47.422;9.656;2022-12-10T04:29:22;2.30;99.90
4366;DHT22;2196;47.422;9.656;2022-12-10T04:31:50;2.40;99.90
4366;DHT22;2196;47.422;9.656;2022-12-10T04:34:17;2.40;99.90
4366;DHT22;2196;47.422;9.656;2022-12-10T04:36:45;2.50;99.90
4366;DHT22;2196;47.422;9.656;2022-12-10T04:39:14;2.50;99.90
4366;DHT22;2196;47.422;9.656;2022-12-10T04:41:42;2.50;99.90
4366;DHT22;2196;47.422;9.656;2022-12-10T04:44:09;2.50;99.90
4366;DHT22;2196;47.422;9.656;2022-12-10T04:46:36;2.40;99.90
4366;DHT22;2196;47.422;9.656;2022-12-10T04:49:04;2.40;99.90
4366;DHT22;2196;47.422;9.656;2022-12-10T04:51:32;2.40;99.90
4366;DHT22;2196;47.422;9.656;2022-12-10T04:53:59;2.40;99.90
4366;DHT22;2196;47.422;9.656;2022-12-10T04:56:27;2.40;99.90
4366;DHT22;2196;47.422;9.656;2022-12-10T04:58:55;2.40;99.90
4366;DHT22;2196;47.422;9.656;2022-12-10T05:01:23;2.40;99.90
4366;DHT22;2196;47.422;9.656;2022-12-10T05:03:50;2.40;99.90
4366;DHT22;2196;47.422;9.656;2022-12-10T05:06:18;2.40;99.90
4366;DHT22;2196;47.422;9.656;2022-12-10T05:08:46;2.30;99.90
4366;DHT22;2196;47.422;9.656;2022-12-10T05:11:15;2.30;99.90
4366;DHT22;2196;47.422;9.656;2022-12-10T05:13:44;2.30;99.90
4366;DHT22;2196;47.422;9.656;2022-12-10T05:16:16;2.30;99.90
4366;DHT22;2196;47.422;9.656;2022-12-10T05:18:44;2.30;99.90
4366;DHT22;2196;47.422;9.656;2022-12-10T05:21:13;2.40;99.90
4366;DHT22;2196;47.422;9.656;2022-12-10T05:23:42;2.40;99.90
4366;DHT22;2196;47.422;9.656;2022-12-10T05:26:11;2.40;99.90
4366;DHT22;2196;47.422;9.656;2022-12-10T05:28:40;2.50;99.90
4366;DHT22;2196;47.422;9.656;2022-12-10T05:31:13;2.50;99.90
4366;DHT22;2196;47.422;9.656;2022-12-10T05:33:42;2.50;99.90
4366;DHT22;2196;47.422;9.656;2022-12-10T05:36:10;2.50;99.90
4366;DHT22;2196;47.422;9.656;2022-12-10T05:38:39;2.40;99.90
4366;DHT22;2196;47.422;9.656;2022-12-10T05:41:09;2.50;99.90
4366;DHT22;2196;47.422;9.656;2022-12-10T05:43:38;2.50;99.90
4366;DHT22;2196;47.422;9.656;2022-12-10T05:46:12;2.50;99.90
4366;DHT22;2196;47.422;9.656;2022-12-10T05:48:40;2.50;99.90
4366;DHT22;2196;47.422;9.656;2022-12-10T05:51:09;2.60;99.90
4366;DHT22;2196;47.422;9.656;2022-12-10T05:53:36;2.60;99.90
4366;DHT22;2196;47.422;9.656;2022-12-10T05:56:06;2.60;99.90
4366;DHT22;2196;47.422;9.656;2022-12-10T05:58:33;2.60;99.90
4366;DHT22;2196;47.422;9.656;2022-12-10T06:01:06;2.60;99.90
4366;DHT22;2196;47.422;9.656;2022-12-10T06:03:35;2.70;99.90
4366;DHT22;2196;47.422;9.656;2022-12-10T06:06:02;2.60;99.90
4366;DHT22;2196;47.422;9.656;2022-12-10T06:08:29;2.60;99.90
4366;DHT22;2196;47.422;9.656;2022-12-10T06:10:56;2.70;99.90
4366;DHT22;2196;47.422;9.656;2022-12-10T06:13:27;2.70;99.90
4366;DHT22;2196;47.422;9.656;2022-12-10T06:15:54;2.80;99.90
4366;DHT22;2196;47.422;9.656;2022-12-10T06:18:21;2.80;99.90
4366;DHT22;2196;47.422;9.656;2022-12-10T06:20:49;2.80;99.90
4366;DHT22;2196;47.422;9.656;2022-12-10T06:23:16;2.80;99.90
4366;DHT22;2196;47.422;9.656;2022-12-10T06:25:43;2.90;99.90
4366;DHT22;2196;47.422;9.656;2022-12-10T06:28:10;2.90;99.90
4366;DHT22;2196;47.422;9.656;2022-12-10T06:30:37;2.90;99.90
4366;DHT22;2196;47.422;9.656;2022-12-10T06:33:04;2.90;99.90
4366;DHT22;2196;47.422;9.656;2022-12-10T06:35:31;2.90;99.90
4366;DHT22;2196;47.422;9.656;2022-12-10T06:38:00;2.90;99.90
4366;DHT22;2196;47.422;9.656;2022-12-10T06:40:27;2.90;99.90
4366;DHT22;2196;47.422;9.656;2022-12-10T06:42:54;2.90;99.90
4366;DHT22;2196;47.422;9.656;2022-12-10T06:45:21;2.90;99.90
4366;DHT22;2196;47.422;9.656;2022-12-10T06:47:48;2.90;99.90
4366;DHT22;2196;47.422;9.656;2022-12-10T06:50:15;2.90;99.90
4366;DHT22;2196;47.422;9.656;2022-12-10T06:52:42;2.90;99.90
4366;DHT22;2196;47.422;9.656;2022-12-10T06:55:10;2.80;99.90
4366;DHT22;2196;47.422;9.656;2022-12-10T06:57:37;2.90;99.90
4366;DHT22;2196;47.422;9.656;2022-12-10T07:00:05;2.90;99.90
4366;DHT22;2196;47.422;9.656;2022-12-10T07:02:33;2.90;99.90
4366;DHT22;2196;47.422;9.656;2022-12-10T07:05:00;2.90;99.90
4366;DHT22;2196;47.422;9.656;2022-12-10T07:07:27;2.80;99.90
4366;DHT22;2196;47.422;9.656;2022-12-10T07:09:54;2.70;99.90
4366;DHT22;2196;47.422;9.656;2022-12-10T07:12:22;2.80;99.90
4366;DHT22;2196;47.422;9.656;2022-12-10T07:14:49;2.70;99.90
4366;DHT22;2196;47.422;9.656;2022-12-10T07:17:16;2.70;99.90
4366;DHT22;2196;47.422;9.656;2022-12-10T07:19:43;2.70;99.90
4366;DHT22;2196;47.422;9.656;2022-12-10T07:22:11;2.70;99.90
4366;DHT22;2196;47.422;9.656;2022-12-10T07:24:38;2.70;99.90
4366;DHT22;2196;47.422;9.656;2022-12-10T07:27:09;2.70;99.90
4366;DHT22;2196;47.422;9.656;2022-12-10T07:29:37;2.70;99.90
4366;DHT22;2196;47.422;9.656;2022-12-10T07:32:10;2.60;99.90
4366;DHT22;2196;47.422;9.656;2022-12-10T07:34:39;2.60;99.90
4366;DHT22;2196;47.422;9.656;2022-12-10T07:37:06;2.70;99.90
4366;DHT22;2196;47.422;9.656;2022-12-10T07:39:33;2.70;99.90
4366;DHT22;2196;47.422;9.656;2022-12-10T07:42:00;2.70;99.90
4366;DHT22;2196;47.422;9.656;2022-12-10T07:44:27;2.80;99.90
4366;DHT22;2196;47.422;9.656;2022-12-10T07:46:56;2.70;99.90
4366;DHT22;2196;47.422;9.656;2022-12-10T07:49:24;2.70;99.90
4366;DHT22;2196;47.422;9.656;2022-12-10T07:51:51;2.70;99.90
4366;DHT22;2196;47.422;9.656;2022-12-10T07:54:18;2.70;99.90
4366;DHT22;2196;47.422;9.656;2022-12-10T07:56:45;2.70;99.90
4366;DHT22;2196;47.422;9.656;2022-12-10T07:59:12;2.80;99.90
4366;DHT22;2196;47.422;9.656;2022-12-10T08:01:40;2.90;99.90
4366;DHT22;2196;47.422;9.656;2022-12-10T08:04:09;2.90;99.90
4366;DHT22;2196;47.422;9.656;2022-12-10T08:06:36;2.70;99.90
4366;DHT22;2196;47.422;9.656;2022-12-10T08:09:03;2.70;99.90
4366;DHT22;2196;47.422;9.656;2022-12-10T08:11:30;2.80;99.90
4366;DHT22;2196;47.422;9.656;2022-12-10T08:13:58;2.80;99.90
4366;DHT22;2196;47.422;9.656;2022-12-10T08:16:26;2.80;99.90
4366;DHT22;2196;47.422;9.656;2022-12-10T08:18:54;2.80;99.90
4366;DHT22;2196;47.422;9.656;2022-12-10T08:21:25;2.70;99.90
4366;DHT22;2196;47.422;9.656;2022-12-10T08:23:53;2.60;99.90
4366;DHT22;2196;47.422;9.656;2022-12-10T08:26:25;2.50;99.90
4366;DHT22;2196;47.422;9.656;2022-12-10T08:28:53;2.50;99.90
4366;DHT22;2196;47.422;9.656;2022-12-10T08:31:21;2.40;99.90
4366;DHT22;2196;47.422;9.656;2022-12-10T08:33:49;2.50;99.90
4366;DHT22;2196;47.422;9.656;2022-12-10T08:36:17;2.60;99.90
4366;DHT22;2196;47.422;9.656;2022-12-10T08:38:46;2.60;99.90
4366;DHT22;2196;47.422;9.656;2022-12-10T08:41:15;2.60;99.90
4366;DHT22;2196;47.422;9.656;2022-12-10T08:43:42;2.60;99.90
4366;DHT22;2196;47.422;9.656;2022-12-10T08:46:10;2.60;99.90
4366;DHT22;2196;47.422;9.656;2022-12-10T08:48:38;2.60;99.90
4366;DHT22;2196;47.422;9.656;2022-12-10T08:51:06;2.60;99.90
4366;DHT22;2196;47.422;9.656;2022-12-10T08:53:34;2.70;99.90
4366;DHT22;2196;47.422;9.656;2022-12-10T08:56:03;2.70;99.90
4366;DHT22;2196;47.422;9.656;2022-12-10T08:58:30;2.60;99.90
4366;DHT22;2196;47.422;9.656;2022-12-10T09:00:57;2.60;99.90
4366;DHT22;2196;47.422;9.656;2022-12-10T09:03:24;2.60;99.90
4366;DHT22;2196;47.422;9.656;2022-12-10T09:05:51;2.60;99.90
4366;DHT22;2196;47.422;9.656;2022-12-10T09:08:18;2.70;99.90
4366;DHT22;2196;47.422;9.656;2022-12-10T09:10:45;2.70;99.90
4366;DHT22;2196;47.422;9.656;2022-12-10T09:13:14;2.70;99.90
4366;DHT22;2196;47.422;9.656;2022-12-10T09:15:41;2.60;99.90
4366;DHT22;2196;47.422;9.656;2022-12-10T09:18:15;2.60;99.90
4366;DHT22;2196;47.422;9.656;2022-12-10T09:20:42;2.60;99.90
4366;DHT22;2196;47.422;9.656;2022-12-10T09:23:11;2.50;99.90
4366;DHT22;2196;47.422;9.656;2022-12-10T09:25:39;2.50;99.90
4366;DHT22;2196;47.422;9.656;2022-12-10T09:28:10;2.90;99.90
4366;DHT22;2196;47.422;9.656;2022-12-10T09:30:38;2.60;99.90
4366;DHT22;2196;47.422;9.656;2022-12-10T09:33:05;2.70;99.90
4366;DHT22;2196;47.422;9.656;2022-12-10T09:35:32;2.80;99.90
4366;DHT22;2196;47.422;9.656;2022-12-10T09:37:59;2.80;99.90
4366;DHT22;2196;47.422;9.656;2022-12-10T09:40:34;2.80;99.90
4366;DHT22;2196;47.422;9.656;2022-12-10T09:43:06;2.90;99.90
4366;DHT22;2196;47.422;9.656;2022-12-10T09:45:45;2.90;99.90
4366;DHT22;2196;47.422;9.656;2022-12-10T09:48:20;3.00;99.90
4366;DHT22;2196;47.422;9.656;2022-12-10T09:50:52;3.00;99.90
4366;DHT22;2196;47.422;9.656;2022-12-10T09:53:21;3.00;99.90
4366;DHT22;2196;47.422;9.656;2022-12-10T09:55:49;3.00;99.90
4366;DHT22;2196;47.422;9.656;2022-12-10T09:58:18;3.00;99.90
4366;DHT22;2196;47.422;9.656;2022-12-10T10:00:50;3.00;99.90
4366;DHT22;2196;47.422;9.656;2022-12-10T10:03:18;2.90;99.90
4366;DHT22;2196;47.422;9.656;2022-12-10T10:05:47;2.80;99.90
4366;DHT22;2196;47.422;9.656;2022-12-10T10:08:23;2.80;99.90
4366;DHT22;2196;47.422;9.656;2022-12-10T10:10:54;2.80;99.90
4366;DHT22;2196;47.422;9.656;2022-12-10T10:13:30;2.90;99.90
4366;DHT22;2196;47.422;9.656;2022-12-10T10:16:22;2.80;99.90
4366;DHT22;2196;47.422;9.656;2022-12-10T10:18:55;2.90;99.90
4366;DHT22;2196;47.422;9.656;2022-12-10T10:21:24;2.90;99.90
4366;DHT22;2196;47.422;9.656;2022-12-10T10:23:52;3.00;99.90
4366;DHT22;2196;47.422;9.656;2022-12-10T10:26:19;3.00;99.90
4366;DHT22;2196;47.422;9.656;2022-12-10T10:28:47;3.00;99.90
4366;DHT22;2196;47.422;9.656;2022-12-10T10:31:21;3.00;99.90
4366;DHT22;2196;47.422;9.656;2022-12-10T10:33:51;3.00;99.90
4366;DHT22;2196;47.422;9.656;2022-12-10T10:36:26;3.00;99.90
4366;DHT22;2196;47.422;9.656;2022-12-10T10:38:54;2.90;99.90
4366;DHT22;2196;47.422;9.656;2022-12-10T10:41:23;2.90;99.90
4366;DHT22;2196;47.422;9.656;2022-12-10T10:43:59;2.90;99.90
4366;DHT22;2196;47.422;9.656;2022-12-10T10:46:29;3.00;99.90
4366;DHT22;2196;47.422;9.656;2022-12-10T10:49:19;2.90;99.90
4366;DHT22;2196;47.422;9.656;2022-12-10T10:51:48;2.90;99.90
4366;DHT22;2196;47.422;9.656;2022-12-10T10:54:31;2.80;99.90
4366;DHT22;2196;47.422;9.656;2022-12-10T10:57:02;2.90;99.90
4366;DHT22;2196;47.422;9.656;2022-12-10T10:59:32;2.80;99.90
4366;DHT22;2196;47.422;9.656;2022-12-10T11:02:05;2.80;99.90
4366;DHT22;2196;47.422;9.656;2022-12-10T11:04:46;2.70;99.90
4366;DHT22;2196;47.422;9.656;2022-12-10T11:07:21;2.60;99.90
4366;DHT22;2196;47.422;9.656;2022-12-10T11:09:49;2.60;99.90
4366;DHT22;2196;47.422;9.656;2022-12-10T11:12:29;2.50;99.90
4366;DHT22;2196;47.422;9.656;2022-12-10T11:15:00;2.50;99.90
4366;DHT22;2196;47.422;9.656;2022-12-10T11:17:28;2.40;99.90
4366;DHT22;2196;47.422;9.656;2022-12-10T11:19:58;2.40;99.90
4366;DHT22;2196;47.422;9.656;2022-12-10T11:22:27;2.40;99.90
4366;DHT22;2196;47.422;9.656;2022-12-10T11:24:55;2.30;99.90
4366;DHT22;2196;47.422;9.656;2022-12-10T11:27:37;2.20;99.90
4366;DHT22;2196;47.422;9.656;2022-12-10T11:30:08;2.10;99.90
4366;DHT22;2196;47.422;9.656;2022-12-10T11:35:38;2.20;99.90
4366;DHT22;2196;47.422;9.656;2022-12-10T11:38:20;2.10;99.90
4366;DHT22;2196;47.422;9.656;2022-12-10T11:40:50;2.20;99.90
4366;DHT22;2196;47.422;9.656;2022-12-10T11:43:34;2.20;99.90
4366;DHT22;2196;47.422;9.656;2022-12-10T11:46:18;2.20;99.90
4366;DHT22;2196;47.422;9.656;2022-12-10T11:48:59;2.10;99.90
4366;DHT22;2196;47.422;9.656;2022-12-10T11:51:34;2.20;99.90
4366;DHT22;2196;47.422;9.656;2022-12-10T11:54:17;2.20;99.90
4366;DHT22;2196;47.422;9.656;2022-12-10T11:56:52;2.20;99.90
4366;DHT22;2196;47.422;9.656;2022-12-10T11:59:27;2.20;99.90
4366;DHT22;2196;47.422;9.656;2022-12-10T12:02:11;2.20;99.90
4366;DHT22;2196;47.422;9.656;2022-12-10T12:04:56;2.20;99.90
4366;DHT22;2196;47.422;9.656;2022-12-10T12:07:38;2.20;99.90
4366;DHT22;2196;47.422;9.656;2022-12-10T12:10:38;2.20;99.90
4366;DHT22;2196;47.422;9.656;2022-12-10T12:13:13;2.20;99.90
4366;DHT22;2196;47.422;9.656;2022-12-10T12:15:46;2.20;99.90
4366;DHT22;2196;47.422;9.656;2022-12-10T12:18:20;2.10;99.90
4366;DHT22;2196;47.422;9.656;2022-12-10T12:20:52;2.10;99.90
4366;DHT22;2196;47.422;9.656;2022-12-10T12:23:25;2.10;99.90
4366;DHT22;2196;47.422;9.656;2022-12-10T12:25:57;2.20;99.90
4366;DHT22;2196;47.422;9.656;2022-12-10T12:28:30;2.20;99.90
4366;DHT22;2196;47.422;9.656;2022-12-10T12:31:02;2.20;99.90
4366;DHT22;2196;47.422;9.656;2022-12-10T12:33:38;2.10;99.90
4366;DHT22;2196;47.422;9.656;2022-12-10T12:36:12;2.10;99.90
4366;DHT22;2196;47.422;9.656;2022-12-10T12:38:44;2.10;99.90
4366;DHT22;2196;47.422;9.656;2022-12-10T12:41:15;2.10;99.90
4366;DHT22;2196;47.422;9.656;2022-12-10T12:43:49;2.10;99.90
4366;DHT22;2196;47.422;9.656;2022-12-10T12:46:23;2.10;99.90
4366;DHT22;2196;47.422;9.656;2022-12-10T12:48:57;2.00;99.90
4366;DHT22;2196;47.422;9.656;2022-12-10T12:51:31;2.10;99.90
4366;DHT22;2196;47.422;9.656;2022-12-10T12:53:59;2.10;99.90
4366;DHT22;2196;47.422;9.656;2022-12-10T12:56:37;2.10;99.90
4366;DHT22;2196;47.422;9.656;2022-12-10T12:59:15;2.10;99.90
4366;DHT22;2196;47.422;9.656;2022-12-10T13:01:51;2.00;99.90
4366;DHT22;2196;47.422;9.656;2022-12-10T13:04:19;2.00;99.90
4366;DHT22;2196;47.422;9.656;2022-12-10T13:10:10;2.00;99.90
4366;DHT22;2196;47.422;9.656;2022-12-10T13:12:49;2.00;99.90
4366;DHT22;2196;47.422;9.656;2022-12-10T13:15:21;2.00;99.90
4366;DHT22;2196;47.422;9.656;2022-12-10T13:18:06;1.90;99.90
4366;DHT22;2196;47.422;9.656;2022-12-10T13:20:48;1.90;99.90
4366;DHT22;2196;47.422;9.656;2022-12-10T13:23:46;1.90;99.90
4366;DHT22;2196;47.422;9.656;2022-12-10T13:26:24;1.90;99.90
4366;DHT22;2196;47.422;9.656;2022-12-10T13:28:54;1.90;99.90
4366;DHT22;2196;47.422;9.656;2022-12-10T13:31:37;1.90;99.90
4366;DHT22;2196;47.422;9.656;2022-12-10T13:37:10;1.90;99.90
4366;DHT22;2196;47.422;9.656;2022-12-10T13:39:48;1.80;99.90
4366;DHT22;2196;47.422;9.656;2022-12-10T13:42:38;1.80;99.90
4366;DHT22;2196;47.422;9.656;2022-12-10T13:45:35;1.90;99.90
4366;DHT22;2196;47.422;9.656;2022-12-10T13:48:30;1.80;99.90
4366;DHT22;2196;47.422;9.656;2022-12-10T13:51:24;1.70;99.90
4366;DHT22;2196;47.422;9.656;2022-12-10T13:54:02;1.60;99.90
4366;DHT22;2196;47.422;9.656;2022-12-10T13:56:39;1.60;99.90
4366;DHT22;2196;47.422;9.656;2022-12-10T13:59:20;1.50;99.90
4366;DHT22;2196;47.422;9.656;2022-12-10T14:01:57;1.50;99.90
4366;DHT22;2196;47.422;9.656;2022-12-10T14:04:47;1.60;99.90
4366;DHT22;2196;47.422;9.656;2022-12-10T14:07:17;1.60;99.90
4366;DHT22;2196;47.422;9.656;2022-12-10T14:09:48;1.70;99.90
4366;DHT22;2196;47.422;9.656;2022-12-10T14:12:18;1.70;99.90
4366;DHT22;2196;47.422;9.656;2022-12-10T14:14:54;1.60;99.90
4366;DHT22;2196;47.422;9.656;2022-12-10T14:17:28;1.70;99.90
4366;DHT22;2196;47.422;9.656;2022-12-10T14:19:57;1.60;99.90
4366;DHT22;2196;47.422;9.656;2022-12-10T14:22:30;1.70;99.90
4366;DHT22;2196;47.422;9.656;2022-12-10T14:25:01;1.70;99.90
4366;DHT22;2196;47.422;9.656;2022-12-10T14:27:30;1.60;99.90
4366;DHT22;2196;47.422;9.656;2022-12-10T14:30:02;1.30;99.90
4366;DHT22;2196;47.422;9.656;2022-12-10T14:32:33;1.50;99.90
4366;DHT22;2196;47.422;9.656;2022-12-10T14:35:04;1.50;99.90
4366;DHT22;2196;47.422;9.656;2022-12-10T14:37:35;1.40;99.90
4366;DHT22;2196;47.422;9.656;2022-12-10T14:40:05;1.50;99.90
4366;DHT22;2196;47.422;9.656;2022-12-10T14:42:33;1.50;99.90
4366;DHT22;2196;47.422;9.656;2022-12-10T14:45:04;1.50;99.90
4366;DHT22;2196;47.422;9.656;2022-12-10T14:47:35;1.50;99.90
4366;DHT22;2196;47.422;9.656;2022-12-10T14:50:05;1.40;99.90
4366;DHT22;2196;47.422;9.656;2022-12-10T14:52:40;1.40;99.90
4366;DHT22;2196;47.422;9.656;2022-12-10T14:55:12;1.40;99.90
4366;DHT22;2196;47.422;9.656;2022-12-10T14:57:43;1.40;99.90
4366;DHT22;2196;47.422;9.656;2022-12-10T15:00:14;1.40;99.90
4366;DHT22;2196;47.422;9.656;2022-12-10T15:02:45;1.30;99.90
4366;DHT22;2196;47.422;9.656;2022-12-10T15:05:17;1.40;99.90
4366;DHT22;2196;47.422;9.656;2022-12-10T15:07:54;1.30;99.90
4366;DHT22;2196;47.422;9.656;2022-12-10T15:10:25;1.30;99.90
4366;DHT22;2196;47.422;9.656;2022-12-10T15:12:53;1.30;99.90
4366;DHT22;2196;47.422;9.656;2022-12-10T15:15:27;1.30;99.90
4366;DHT22;2196;47.422;9.656;2022-12-10T15:17:59;1.30;99.90
4366;DHT22;2196;47.422;9.656;2022-12-10T15:20:27;1.20;99.90
4366;DHT22;2196;47.422;9.656;2022-12-10T15:23:07;1.20;99.90
4366;DHT22;2196;47.422;9.656;2022-12-10T15:25:42;1.10;99.90
4366;DHT22;2196;47.422;9.656;2022-12-10T15:28:22;1.10;99.90
4366;DHT22;2196;47.422;9.656;2022-12-10T15:30:51;1.00;99.90
4366;DHT22;2196;47.422;9.656;2022-12-10T15:33:25;1.00;99.90
4366;DHT22;2196;47.422;9.656;2022-12-10T15:35:54;1.00;99.90
4366;DHT22;2196;47.422;9.656;2022-12-10T15:38:22;1.00;99.90
4366;DHT22;2196;47.422;9.656;2022-12-10T15:40:49;0.90;99.90
4366;DHT22;2196;47.422;9.656;2022-12-10T15:43:25;0.90;99.90
4366;DHT22;2196;47.422;9.656;2022-12-10T15:45:53;0.90;99.90
4366;DHT22;2196;47.422;9.656;2022-12-10T15:48:20;0.80;99.90
4366;DHT22;2196;47.422;9.656;2022-12-10T15:50:49;0.80;99.90
4366;DHT22;2196;47.422;9.656;2022-12-10T15:53:24;0.80;99.90
4366;DHT22;2196;47.422;9.656;2022-12-10T15:55:52;0.80;99.90
4366;DHT22;2196;47.422;9.656;2022-12-10T15:58:19;0.90;99.90
4366;DHT22;2196;47.422;9.656;2022-12-10T16:00:46;0.80;99.90
4366;DHT22;2196;47.422;9.656;2022-12-10T16:03:15;0.80;99.90
4366;DHT22;2196;47.422;9.656;2022-12-10T16:05:43;0.80;99.90
4366;DHT22;2196;47.422;9.656;2022-12-10T16:08:16;0.80;99.90
4366;DHT22;2196;47.422;9.656;2022-12-10T16:10:44;0.90;99.90
4366;DHT22;2196;47.422;9.656;2022-12-10T16:13:14;0.90;99.90
4366;DHT22;2196;47.422;9.656;2022-12-10T16:15:44;0.90;99.90
4366;DHT22;2196;47.422;9.656;2022-12-10T16:18:13;0.80;99.90
4366;DHT22;2196;47.422;9.656;2022-12-10T16:20:41;0.80;99.90
4366;DHT22;2196;47.422;9.656;2022-12-10T16:23:08;0.80;99.90
4366;DHT22;2196;47.422;9.656;2022-12-10T16:25:35;0.90;99.90
4366;DHT22;2196;47.422;9.656;2022-12-10T16:28:03;0.80;99.90
4366;DHT22;2196;47.422;9.656;2022-12-10T16:30:34;0.80;99.90
4366;DHT22;2196;47.422;9.656;2022-12-10T16:33:01;0.80;99.90
4366;DHT22;2196;47.422;9.656;2022-12-10T16:35:30;0.80;99.90
4366;DHT22;2196;47.422;9.656;2022-12-10T16:37:58;0.80;99.90
4366;DHT22;2196;47.422;9.656;2022-12-10T16:40:26;0.90;99.90
4366;DHT22;2196;47.422;9.656;2022-12-10T16:42:54;0.90;99.90
4366;DHT22;2196;47.422;9.656;2022-12-10T16:45:24;0.90;99.90
4366;DHT22;2196;47.422;9.656;2022-12-10T16:47:52;0.90;99.90
4366;DHT22;2196;47.422;9.656;2022-12-10T16:50:20;0.90;99.90
4366;DHT22;2196;47.422;9.656;2022-12-10T16:52:50;0.90;99.90